Time;durP1;ratioP1;P1;durP2;ratioP2;P2;SDS_P1;SDS_P2;PMS_P1;PMS_P2;Temp;Humidity;BMP_temperature;BMP_pressure;BME280_temperature;BME280_humidity;BME280_pressure;Samples;Min_cycle;Max_cycle;Signal;HPM_P1;HPM_P2
2023/05/20 00:00:06;;;;;;;10.00;2.97;;;16.10;99.90;;;;;;5057819;28;20050;-77
2023/05/20 00:02:32;;;;;;;4.78;2.78;;;16.10;99.90;;;;;;5055780;28;20016;-77
2023/05/20 00:04:58;;;;;;;8.02;2.75;;;16.10;99.90;;;;;;5063724;28;20052;-77
2023/05/20 00:07:24;;;;;;;7.35;2.53;;;16.00;99.90;;;;;;5056510;28;20029;-76
2023/05/20 00:09:50;;;;;;;5.28;2.80;;;16.00;99.90;;;;;;5057938;28;20021;-77
2023/05/20 00:12:16;;;;;;;3.25;2.65;;;15.90;99.90;;;;;;5052983;28;20047;-76
2023/05/20 00:14:42;;;;;;;6.78;3.17;;;15.90;99.90;;;;;;5062860;28;20491;-77
2023/05/20 00:17:09;;;;;;;4.72;2.45;;;16.00;99.90;;;;;;5053806;28;20041;-77
2023/05/20 00:19:35;;;;;;;8.85;3.42;;;15.90;99.90;;;;;;5063216;28;20040;-78
2023/05/20 00:22:01;;;;;;;3.58;2.80;;;15.90;99.90;;;;;;5064633;28;20020;-77
2023/05/20 00:24:27;;;;;;;5.25;2.83;;;15.80;99.90;;;;;;5063096;28;20119;-77
2023/05/20 00:26:54;;;;;;;5.80;2.95;;;15.80;99.90;;;;;;5063241;28;20537;-77
2023/05/20 00:29:21;;;;;;;8.50;3.03;;;15.70;99.90;;;;;;5062915;28;20031;-76
2023/05/20 00:31:46;;;;;;;5.55;2.63;;;15.70;99.90;;;;;;5062698;28;20539;-76
2023/05/20 00:34:12;;;;;;;5.25;2.67;;;15.60;99.90;;;;;;5063118;28;20021;-77
2023/05/20 00:36:38;;;;;;;4.60;2.65;;;15.60;99.90;;;;;;5064763;28;20071;-76
2023/05/20 00:39:04;;;;;;;7.13;3.15;;;15.60;99.90;;;;;;5062145;28;20074;-76
2023/05/20 00:41:31;;;;;;;9.80;3.00;;;15.50;99.90;;;;;;5064845;28;20024;-76
2023/05/20 00:44:01;;;;;;;7.03;3.00;;;15.50;99.90;;;;;;5062104;28;20059;-76
2023/05/20 00:46:28;;;;;;;6.38;2.17;;;15.50;99.90;;;;;;5043723;28;20037;-76
2023/05/20 00:48:54;;;;;;;5.78;2.90;;;15.50;99.90;;;;;;5062567;28;20056;-76
2023/05/20 00:51:20;;;;;;;6.00;3.10;;;15.50;99.90;;;;;;5063418;28;20028;-76
2023/05/20 00:53:46;;;;;;;5.30;3.25;;;15.50;99.90;;;;;;5063485;28;20810;-76
2023/05/20 00:56:13;;;;;;;6.25;2.95;;;15.50;99.90;;;;;;5044178;28;20540;-76
2023/05/20 00:58:39;;;;;;;4.65;3.17;;;15.50;99.90;;;;;;5063927;28;20461;-77
2023/05/20 01:01:05;;;;;;;8.82;2.95;;;15.50;99.90;;;;;;5062434;28;20619;-76
2023/05/20 01:03:31;;;;;;;9.43;3.50;;;15.50;99.90;;;;;;5064232;28;20244;-76
2023/05/20 01:05:57;;;;;;;6.25;3.42;;;15.40;99.90;;;;;;5062298;28;20033;-77
2023/05/20 01:08:24;;;;;;;4.85;3.13;;;15.40;99.90;;;;;;5062269;28;20078;-75
2023/05/20 01:11:17;;;;;;;5.70;3.42;;;15.40;99.90;;;;;;5063688;28;20027;-75
2023/05/20 01:13:46;;;;;;;6.85;3.13;;;15.30;99.90;;;;;;5062953;28;20358;-76
2023/05/20 01:16:16;;;;;;;10.13;3.40;;;15.30;99.90;;;;;;5061496;28;20461;-76
2023/05/20 01:18:43;;;;;;;5.13;3.30;;;15.20;99.90;;;;;;5062717;28;20469;-76
2023/05/20 01:21:12;;;;;;;7.13;3.03;;;15.10;99.90;;;;;;5063543;28;20579;-76
2023/05/20 01:23:40;;;;;;;9.38;3.42;;;15.10;99.90;;;;;;5062327;28;20025;-75
2023/05/20 01:26:07;;;;;;;5.53;3.40;;;15.00;99.90;;;;;;5061972;28;20403;-79
2023/05/20 01:28:37;;;;;;;5.32;3.03;;;15.20;99.90;;;;;;5063643;28;20027;-75
2023/05/20 01:31:10;;;;;;;12.25;3.80;;;15.20;99.90;;;;;;5063084;28;20025;-76
2023/05/20 01:33:37;;;;;;;5.28;2.88;;;15.10;99.90;;;;;;5066224;28;20024;-78
2023/05/20 01:36:05;;;;;;;8.77;3.58;;;15.00;99.90;;;;;;5064446;28;20064;-77
2023/05/20 01:38:31;;;;;;;7.95;3.45;;;15.10;99.90;;;;;;5063344;28;20036;-76
2023/05/20 01:40:58;;;;;;;6.65;3.58;;;15.10;99.90;;;;;;5062358;28;20056;-76
2023/05/20 01:43:25;;;;;;;9.02;3.65;;;15.00;99.90;;;;;;5062785;28;20023;-76
2023/05/20 01:45:51;;;;;;;6.28;3.35;;;15.10;99.90;;;;;;5061186;28;20037;-75
2023/05/20 01:48:17;;;;;;;7.00;3.30;;;15.10;99.90;;;;;;5049119;28;20082;-76
2023/05/20 01:50:43;;;;;;;7.95;4.05;;;15.00;99.90;;;;;;5069826;28;20567;-77
2023/05/20 01:53:08;;;;;;;7.50;3.70;;;15.00;99.90;;;;;;5063429;28;20025;-76
2023/05/20 01:55:35;;;;;;;4.68;3.45;;;14.90;99.90;;;;;;5059552;28;20024;-76
2023/05/20 01:58:01;;;;;;;8.13;4.10;;;15.00;99.90;;;;;;5059967;28;20416;-76
2023/05/20 02:00:27;;;;;;;11.00;4.63;;;15.00;99.90;;;;;;5060064;28;20055;-77
2023/05/20 02:02:53;;;;;;;6.22;4.13;;;15.00;99.90;;;;;;5061670;28;20469;-76
2023/05/20 02:05:18;;;;;;;11.85;4.35;;;15.00;99.90;;;;;;5059683;28;20060;-76
2023/05/20 02:07:44;;;;;;;10.43;4.18;;;14.90;99.90;;;;;;5060684;28;20036;-77
2023/05/20 02:10:10;;;;;;;9.98;4.10;;;15.00;99.90;;;;;;5063525;28;20449;-75
2023/05/20 02:12:36;;;;;;;8.55;4.13;;;15.00;99.90;;;;;;5041560;28;20029;-76
2023/05/20 02:15:01;;;;;;;8.77;4.53;;;14.80;99.90;;;;;;5052215;28;20029;-76
2023/05/20 02:17:27;;;;;;;8.15;4.72;;;14.90;99.90;;;;;;5052246;28;20043;-76
2023/05/20 02:19:53;;;;;;;7.43;5.05;;;14.80;99.90;;;;;;5052167;28;20107;-75
2023/05/20 02:22:19;;;;;;;7.25;4.55;;;14.90;99.90;;;;;;5051536;28;20025;-76
2023/05/20 02:24:45;;;;;;;8.63;4.80;;;14.70;99.90;;;;;;5071121;28;20558;-76
2023/05/20 02:27:11;;;;;;;8.20;4.53;;;14.70;99.90;;;;;;5072019;28;20488;-75
2023/05/20 02:29:36;;;;;;;9.75;4.50;;;14.60;99.90;;;;;;5072253;28;20098;-76
2023/05/20 02:32:02;;;;;;;13.43;5.13;;;14.60;99.90;;;;;;5071305;28;20029;-75
2023/05/20 02:34:29;;;;;;;8.38;4.40;;;14.60;99.90;;;;;;5071148;28;20040;-76
2023/05/20 02:36:55;;;;;;;10.30;4.55;;;14.60;99.90;;;;;;5072064;28;20024;-75
2023/05/20 02:39:21;;;;;;;9.93;4.63;;;14.60;99.90;;;;;;5072274;28;20035;-76
2023/05/20 02:41:47;;;;;;;6.70;4.35;;;14.60;99.90;;;;;;5071759;28;20017;-76
2023/05/20 02:44:13;;;;;;;9.18;5.35;;;14.50;99.90;;;;;;5071994;28;20098;-77
2023/05/20 02:46:39;;;;;;;7.63;4.15;;;14.50;99.90;;;;;;5071922;28;20412;-76
2023/05/20 02:49:04;;;;;;;9.27;4.80;;;14.50;99.90;;;;;;5055070;28;20024;-75
2023/05/20 02:51:33;;;;;;;7.97;4.60;;;14.50;99.90;;;;;;5076006;28;20032;-75
2023/05/20 02:53:59;;;;;;;7.72;4.75;;;14.50;99.90;;;;;;5076127;28;20024;-76
2023/05/20 02:56:25;;;;;;;10.30;5.03;;;14.50;99.90;;;;;;5075721;28;20032;-75
2023/05/20 02:58:51;;;;;;;14.20;5.07;;;14.50;99.90;;;;;;5087898;28;20024;-76
2023/05/20 03:01:17;;;;;;;11.85;4.47;;;14.40;99.90;;;;;;5095692;28;20483;-75
2023/05/20 03:03:43;;;;;;;10.05;5.05;;;14.30;99.90;;;;;;5096335;28;20533;-76
2023/05/20 03:06:09;;;;;;;11.00;4.88;;;14.40;99.90;;;;;;5095427;28;20046;-76
2023/05/20 03:08:35;;;;;;;10.35;5.07;;;14.40;99.90;;;;;;5096096;28;20028;-76
2023/05/20 03:11:01;;;;;;;12.00;5.35;;;14.40;99.90;;;;;;5087247;28;20495;-77
2023/05/20 03:13:26;;;;;;;13.88;5.50;;;14.20;99.90;;;;;;5075640;28;20020;-75
2023/05/20 03:15:52;;;;;;;9.68;4.90;;;14.30;99.90;;;;;;5075834;28;20033;-75
2023/05/20 03:18:18;;;;;;;9.15;5.53;;;14.30;99.90;;;;;;5075335;28;20019;-75
2023/05/20 03:20:45;;;;;;;6.22;5.22;;;14.40;99.90;;;;;;5071381;28;20033;-76
2023/05/20 03:23:11;;;;;;;9.25;5.38;;;14.30;99.90;;;;;;5054316;28;20052;-76
2023/05/20 03:25:37;;;;;;;11.13;5.53;;;14.10;99.90;;;;;;5055566;28;20485;-76
2023/05/20 03:28:04;;;;;;;12.82;5.82;;;14.20;99.90;;;;;;5037191;28;20440;-76
2023/05/20 03:30:30;;;;;;;10.40;5.18;;;14.20;99.90;;;;;;5055506;28;20029;-75
2023/05/20 03:32:56;;;;;;;8.63;5.20;;;14.20;99.90;;;;;;5054453;28;20025;-76
2023/05/20 03:35:22;;;;;;;9.60;5.28;;;14.20;99.90;;;;;;5055242;28;20032;-76
2023/05/20 03:37:50;;;;;;;9.55;5.68;;;14.20;99.90;;;;;;5055307;28;20020;-76
2023/05/20 03:40:16;;;;;;;10.63;5.75;;;14.20;99.90;;;;;;5056923;28;20055;-75
2023/05/20 03:42:42;;;;;;;10.15;5.72;;;14.20;99.90;;;;;;5073282;28;20052;-75
2023/05/20 03:45:08;;;;;;;10.70;5.60;;;14.20;99.90;;;;;;5074353;28;20075;-75
2023/05/20 03:47:34;;;;;;;12.25;5.90;;;14.20;99.90;;;;;;5074847;28;20067;-75
2023/05/20 03:50:00;;;;;;;9.23;5.80;;;14.20;99.90;;;;;;5075273;28;20032;-76
2023/05/20 03:52:25;;;;;;;8.07;5.05;;;14.20;99.90;;;;;;5074111;28;20020;-76
2023/05/20 03:54:52;;;;;;;11.98;6.50;;;14.20;99.90;;;;;;5073974;28;20031;-76
2023/05/20 03:57:18;;;;;;;11.50;5.47;;;14.10;99.90;;;;;;5074850;28;20032;-76
2023/05/20 03:59:44;;;;;;;9.05;5.60;;;14.10;99.90;;;;;;5074043;28;20077;-77
2023/05/20 04:02:10;;;;;;;14.68;6.28;;;14.10;99.90;;;;;;5073864;28;20555;-75
2023/05/20 04:04:36;;;;;;;10.82;5.57;;;14.00;99.90;;;;;;5056410;28;20377;-75
2023/05/20 04:07:03;;;;;;;9.32;6.80;;;13.90;99.90;;;;;;5074465;28;20142;-76
2023/05/20 04:09:29;;;;;;;8.63;6.80;;;13.90;99.90;;;;;;5074463;28;20020;-76
2023/05/20 04:11:55;;;;;;;13.18;6.22;;;14.00;99.90;;;;;;5074592;28;20024;-75
2023/05/20 04:14:21;;;;;;;11.13;6.50;;;14.00;99.90;;;;;;5053162;28;20029;-75
2023/05/20 04:16:49;;;;;;;10.80;6.78;;;14.00;99.90;;;;;;5073829;28;20039;-75
2023/05/20 04:19:14;;;;;;;10.02;6.40;;;13.90;99.90;;;;;;5064615;28;20020;-76
2023/05/20 04:21:43;;;;;;;8.52;5.68;;;13.90;99.90;;;;;;5053350;28;20078;-75
2023/05/20 04:24:08;;;;;;;13.45;5.85;;;13.90;99.90;;;;;;5052993;28;20032;-75
2023/05/20 04:26:34;;;;;;;13.00;6.28;;;13.90;99.90;;;;;;5052638;28;20045;-74
2023/05/20 04:29:02;;;;;;;8.82;5.47;;;14.00;99.90;;;;;;5068797;28;20017;-75
2023/05/20 04:31:29;;;;;;;14.95;6.43;;;13.90;99.90;;;;;;5074095;28;20704;-75
2023/05/20 04:33:56;;;;;;;9.75;6.18;;;13.90;99.90;;;;;;5074239;28;20028;-75
2023/05/20 04:36:27;;;;;;;7.80;5.63;;;13.80;99.90;;;;;;5074436;28;20028;-75
2023/05/20 04:38:56;;;;;;;12.70;5.80;;;13.90;99.90;;;;;;5073230;28;20059;-75
2023/05/20 04:41:23;;;;;;;10.82;5.43;;;13.90;99.90;;;;;;5072790;28;20017;-77
2023/05/20 04:43:49;;;;;;;7.50;5.13;;;13.90;99.90;;;;;;5074333;28;20056;-76
2023/05/20 04:46:15;;;;;;;10.40;6.00;;;13.90;99.90;;;;;;5072612;28;20047;-75
2023/05/20 04:48:42;;;;;;;10.65;6.13;;;13.80;99.90;;;;;;5073970;28;20048;-75
2023/05/20 04:51:08;;;;;;;9.13;5.03;;;13.80;99.90;;;;;;5066506;28;20465;-76
2023/05/20 04:53:34;;;;;;;10.45;5.15;;;13.90;99.90;;;;;;5053869;28;20028;-76
2023/05/20 04:56:00;;;;;;;12.35;5.60;;;13.80;99.90;;;;;;5053192;28;20469;-76
2023/05/20 04:58:28;;;;;;;8.45;4.80;;;13.80;99.90;;;;;;5035616;28;20017;-75
2023/05/20 05:00:55;;;;;;;10.43;5.90;;;13.80;99.90;;;;;;5035644;28;20140;-76
2023/05/20 05:03:21;;;;;;;10.27;5.93;;;13.80;99.90;;;;;;5053528;28;20104;-77
2023/05/20 05:05:47;;;;;;;9.05;5.30;;;13.90;99.90;;;;;;5052686;28;20457;-76
2023/05/20 05:08:12;;;;;;;7.50;5.88;;;13.90;99.90;;;;;;5053360;28;20128;-77
2023/05/20 05:10:38;;;;;;;8.27;5.43;;;13.80;99.90;;;;;;5058149;28;20069;-75
2023/05/20 05:13:04;;;;;;;12.35;6.28;;;13.90;99.90;;;;;;5072646;28;20032;-76
2023/05/20 05:15:30;;;;;;;7.15;5.07;;;13.90;99.90;;;;;;5073020;28;20392;-76
2023/05/20 05:17:55;;;;;;;10.75;6.13;;;14.00;99.90;;;;;;5055580;28;20029;-76
2023/05/20 05:20:21;;;;;;;11.60;6.13;;;14.10;99.90;;;;;;5055178;28;20107;-76
2023/05/20 05:22:49;;;;;;;11.50;5.50;;;14.00;99.90;;;;;;5055430;28;20016;-77
2023/05/20 05:25:15;;;;;;;10.65;5.40;;;14.00;99.90;;;;;;5073070;28;20040;-76
2023/05/20 05:27:41;;;;;;;10.70;5.60;;;14.00;99.90;;;;;;5073040;28;20048;-75
2023/05/20 05:30:07;;;;;;;14.20;5.88;;;14.10;99.90;;;;;;5072243;28;20067;-76
2023/05/20 05:32:33;;;;;;;9.10;5.60;;;14.10;99.90;;;;;;5073036;28;20131;-75
2023/05/20 05:34:59;;;;;;;9.77;6.20;;;14.20;99.90;;;;;;5072926;28;20025;-76
2023/05/20 05:37:25;;;;;;;8.07;5.53;;;14.20;99.90;;;;;;5073134;28;20082;-76
2023/05/20 05:39:51;;;;;;;10.20;5.50;;;14.20;99.90;;;;;;5072977;28;20437;-76
2023/05/20 05:42:17;;;;;;;12.05;5.35;;;14.30;99.90;;;;;;5072569;28;20024;-76
2023/05/20 05:44:43;;;;;;;7.38;4.95;;;14.30;99.90;;;;;;5072696;28;20043;-76
2023/05/20 05:47:09;;;;;;;7.93;4.93;;;14.40;99.90;;;;;;5072818;28;20082;-75
2023/05/20 05:49:35;;;;;;;7.05;5.45;;;14.40;99.90;;;;;;5072893;28;20028;-77
2023/05/20 05:52:01;;;;;;;12.07;4.97;;;14.40;99.90;;;;;;5071735;28;20103;-76
2023/05/20 05:54:26;;;;;;;8.63;5.05;;;14.50;99.90;;;;;;5052145;28;20476;-75
2023/05/20 05:56:53;;;;;;;8.60;5.25;;;14.50;99.90;;;;;;5071990;28;20169;-75
2023/05/20 05:59:19;;;;;;;7.75;5.25;;;14.60;99.90;;;;;;5071324;28;20377;-75
2023/05/20 06:01:45;;;;;;;8.55;5.18;;;14.60;99.90;;;;;;5054286;28;20119;-75
2023/05/20 06:04:11;;;;;;;7.95;5.15;;;14.60;99.90;;;;;;5072615;28;20480;-76
2023/05/20 06:06:37;;;;;;;9.35;5.70;;;14.50;99.90;;;;;;5072489;28;20429;-76
2023/05/20 06:09:03;;;;;;;5.35;4.25;;;14.50;99.90;;;;;;5072815;28;20097;-75
2023/05/20 06:11:29;;;;;;;11.38;4.60;;;14.50;99.90;;;;;;5072510;28;20030;-76
2023/05/20 06:13:55;;;;;;;7.45;4.78;;;14.50;99.90;;;;;;5072264;28;20511;-77
2023/05/20 06:16:20;;;;;;;6.03;4.53;;;14.50;99.90;;;;;;5072210;28;20035;-75
2023/05/20 06:18:49;;;;;;;7.57;4.70;;;14.60;99.90;;;;;;5072504;28;20537;-78
2023/05/20 06:21:15;;;;;;;7.15;4.70;;;14.70;99.90;;;;;;5071642;28;20028;-77
2023/05/20 06:23:40;;;;;;;10.07;5.10;;;14.70;99.90;;;;;;5071816;28;20036;-78
2023/05/20 06:26:06;;;;;;;7.38;5.13;;;14.80;99.90;;;;;;5072357;28;20036;-75
2023/05/20 06:28:32;;;;;;;8.10;4.43;;;14.80;99.90;;;;;;5071905;28;20020;-75
2023/05/20 06:30:58;;;;;;;5.25;4.13;;;14.80;99.90;;;;;;5057111;28;20086;-76
2023/05/20 06:33:27;;;;;;;8.82;4.65;;;14.90;99.90;;;;;;5052045;28;20029;-80
2023/05/20 06:35:54;;;;;;;5.85;4.68;;;14.90;99.90;;;;;;5050607;28;20017;-74
2023/05/20 06:38:20;;;;;;;6.57;4.13;;;15.00;99.90;;;;;;5051822;28;20579;-76
2023/05/20 06:40:49;;;;;;;9.32;4.82;;;15.10;99.90;;;;;;5052286;28;20029;-78
2023/05/20 06:43:15;;;;;;;6.68;4.53;;;15.30;99.90;;;;;;5056086;28;20087;-75
2023/05/20 06:45:41;;;;;;;8.38;4.80;;;15.30;99.90;;;;;;5063701;28;20131;-75
2023/05/20 06:48:07;;;;;;;8.13;4.35;;;15.40;99.90;;;;;;5069993;28;20055;-75
2023/05/20 06:50:33;;;;;;;8.43;5.15;;;15.40;99.90;;;;;;5065411;28;20057;-79
2023/05/20 06:53:00;;;;;;;5.95;3.97;;;15.50;99.90;;;;;;5034150;28;20377;-78
2023/05/20 06:55:26;;;;;;;8.52;4.75;;;15.60;99.90;;;;;;5052043;28;20017;-78
2023/05/20 06:57:52;;;;;;;5.63;4.47;;;15.80;99.90;;;;;;5051566;28;20018;-78
2023/05/20 07:00:18;;;;;;;8.85;4.85;;;15.80;99.90;;;;;;5052940;28;20036;-77
2023/05/20 07:02:44;;;;;;;8.73;4.07;;;15.90;99.90;;;;;;5052054;28;20092;-76
2023/05/20 07:05:11;;;;;;;10.43;4.45;;;16.00;99.90;;;;;;5051454;28;20420;-77
2023/05/20 07:07:37;;;;;;;6.53;4.38;;;16.20;99.90;;;;;;5060752;28;20005;-77
2023/05/20 07:10:04;;;;;;;10.80;5.15;;;16.20;99.90;;;;;;5061796;28;20021;-77
2023/05/20 07:12:30;;;;;;;8.38;4.07;;;16.40;99.90;;;;;;5059618;28;20017;-77
2023/05/20 07:14:56;;;;;;;6.32;4.05;;;16.50;99.90;;;;;;5061480;28;20032;-75
2023/05/20 07:17:23;;;;;;;9.63;4.63;;;16.60;99.90;;;;;;5059730;28;20025;-75
2023/05/20 07:19:49;;;;;;;8.65;4.97;;;16.80;99.90;;;;;;5062094;28;20460;-75
2023/05/20 07:22:15;;;;;;;6.05;4.57;;;16.90;99.90;;;;;;5060901;28;20082;-75
2023/05/20 07:24:40;;;;;;;6.03;4.85;;;16.90;99.90;;;;;;5060399;28;20039;-75
2023/05/20 07:27:07;;;;;;;10.35;4.22;;;16.90;99.90;;;;;;5059527;28;20030;-75
2023/05/20 07:29:36;;;;;;;10.15;4.30;;;17.00;99.90;;;;;;5059455;28;20024;-76
2023/05/20 07:32:04;;;;;;;6.43;3.92;;;17.20;99.90;;;;;;5056241;28;20028;-75
2023/05/20 07:34:30;;;;;;;4.88;4.38;;;17.40;99.90;;;;;;5058225;28;20021;-76
2023/05/20 07:36:56;;;;;;;7.10;4.40;;;17.50;99.90;;;;;;5044906;28;20078;-75
2023/05/20 07:39:22;;;;;;;8.85;5.07;;;17.40;99.90;;;;;;5065563;28;20588;-75
2023/05/20 07:41:49;;;;;;;8.18;4.38;;;17.40;99.90;;;;;;5074784;28;20021;-75
2023/05/20 07:44:14;;;;;;;8.32;4.28;;;17.50;99.90;;;;;;5074673;28;20029;-76
2023/05/20 07:46:43;;;;;;;6.18;4.97;;;17.80;99.90;;;;;;5074484;28;20040;-75
2023/05/20 07:49:09;;;;;;;6.88;4.47;;;17.80;99.90;;;;;;5073009;28;20024;-76
2023/05/20 07:51:35;;;;;;;6.05;4.47;;;17.90;99.90;;;;;;5058387;28;20032;-77
2023/05/20 07:54:01;;;;;;;7.47;4.97;;;17.90;99.90;;;;;;5054730;28;20025;-76
2023/05/20 07:56:27;;;;;;;7.57;4.45;;;18.00;99.90;;;;;;5054994;28;20096;-75
2023/05/20 07:58:57;;;;;;;9.57;3.65;;;18.10;99.90;;;;;;5054489;28;20021;-75
2023/05/20 08:01:23;;;;;;;6.00;3.58;;;18.20;99.90;;;;;;5054680;28;20017;-76
2023/05/20 08:03:48;;;;;;;6.07;3.78;;;18.50;99.90;;;;;;5054309;28;20075;-77
2023/05/20 08:06:14;;;;;;;5.82;3.45;;;18.60;99.90;;;;;;5054496;28;20382;-77
2023/05/20 08:08:41;;;;;;;6.10;3.78;;;18.60;99.90;;;;;;5053557;28;20481;-76
2023/05/20 08:11:08;;;;;;;8.52;3.75;;;18.70;99.90;;;;;;5061533;28;20025;-75
2023/05/20 08:13:34;;;;;;;8.27;3.30;;;18.80;99.90;;;;;;5071623;28;20111;-76
2023/05/20 08:16:02;;;;;;;8.18;3.72;;;18.70;99.90;;;;;;5074324;28;20082;-76
2023/05/20 08:18:28;;;;;;;4.47;3.40;;;18.80;99.90;;;;;;5073888;28;20013;-76
2023/05/20 08:20:54;;;;;;;4.28;3.50;;;18.80;99.90;;;;;;5074567;28;20031;-76
2023/05/20 08:23:20;;;;;;;6.47;3.05;;;18.90;99.90;;;;;;5073844;28;20024;-76
2023/05/20 08:25:47;;;;;;;5.93;3.33;;;19.10;99.90;;;;;;5062806;28;20044;-75
2023/05/20 08:28:13;;;;;;;6.47;3.60;;;19.40;99.90;;;;;;5053765;28;20021;-74
2023/05/20 08:30:38;;;;;;;8.73;3.17;;;19.50;99.90;;;;;;5035322;28;20504;-73
2023/05/20 08:33:04;;;;;;;5.32;3.35;;;19.60;99.90;;;;;;5051807;28;20096;-73
2023/05/20 08:35:30;;;;;;;6.20;3.00;;;19.70;99.90;;;;;;5054299;28;20119;-76
2023/05/20 08:37:56;;;;;;;4.47;3.13;;;19.70;99.90;;;;;;5053948;28;20052;-73
2023/05/20 08:40:22;;;;;;;7.00;3.45;;;19.80;99.90;;;;;;5053962;28;20118;-75
2023/05/20 08:42:51;;;;;;;4.45;3.00;;;19.70;99.90;;;;;;5063732;28;20078;-75
2023/05/20 08:45:19;;;;;;;8.20;3.78;;;20.00;99.90;;;;;;5073934;28;20041;-74
2023/05/20 08:47:45;;;;;;;5.32;3.20;;;20.10;99.90;;;;;;5073742;28;20024;-75
2023/05/20 08:50:13;;;;;;;4.82;3.28;;;20.10;99.90;;;;;;5073983;28;20086;-76
2023/05/20 08:52:44;;;;;;;7.03;3.33;;;20.20;99.90;;;;;;5073710;28;20028;-76
2023/05/20 08:55:38;;;;;;;6.72;3.40;;;20.30;99.90;;;;;;5073847;28;20048;-75
2023/05/20 08:58:04;;;;;;;4.35;3.85;;;20.30;99.90;;;;;;5073214;28;20031;-78
2023/05/20 09:00:30;;;;;;;9.20;3.53;;;20.40;99.90;;;;;;5073587;28;20384;-75
2023/05/20 09:02:57;;;;;;;5.10;3.08;;;20.50;99.90;;;;;;5072791;28;20024;-75
2023/05/20 09:05:23;;;;;;;6.45;3.00;;;20.50;99.90;;;;;;5073457;28;20030;-76
2023/05/20 09:07:49;;;;;;;3.70;3.38;;;20.60;99.90;;;;;;5073511;28;20104;-79
2023/05/20 09:10:15;;;;;;;5.75;2.75;;;20.60;99.90;;;;;;5055603;28;20059;-79
2023/05/20 09:12:41;;;;;;;8.25;2.95;;;20.40;99.90;;;;;;5073182;28;20024;-75
2023/05/20 09:15:07;;;;;;;4.63;2.90;;;20.40;99.90;;;;;;5073472;28;20021;-78
2023/05/20 09:17:36;;;;;;;5.45;2.92;;;20.30;99.90;;;;;;5073572;28;20035;-76
2023/05/20 09:20:07;;;;;;;7.30;3.38;;;20.40;99.90;;;;;;5073073;28;20055;-78
2023/05/20 09:22:33;;;;;;;3.35;2.97;;;20.70;99.90;;;;;;5072502;28;20458;-79
2023/05/20 09:24:59;;;;;;;9.77;3.60;;;21.00;99.90;;;;;;5073261;28;20086;-77
2023/05/20 09:27:24;;;;;;;5.38;2.55;;;21.00;99.90;;;;;;5073069;28;20024;-76
2023/05/20 09:29:50;;;;;;;8.07;3.15;;;20.90;99.90;;;;;;5048030;28;20966;-75
2023/05/20 09:32:18;;;;;;;5.45;3.05;;;21.10;99.90;;;;;;5049349;28;20416;-76
2023/05/20 09:34:46;;;;;;;6.97;3.22;;;21.30;99.90;;;;;;5054096;28;20012;-74
2023/05/20 09:37:16;;;;;;;3.97;3.00;;;21.60;99.90;;;;;;5050741;28;20041;-80
2023/05/20 09:39:58;;;;;;;6.60;3.45;;;21.80;99.90;;;;;;5054555;28;20017;-76
2023/05/20 09:42:34;;;;;;;4.85;3.85;;;21.50;99.90;;;;;;5056761;28;20437;-77
2023/05/20 09:45:03;;;;;;;9.13;3.28;;;21.20;99.90;;;;;;5053927;28;20847;-75
2023/05/20 09:47:30;;;;;;;3.63;3.28;;;21.30;99.90;;;;;;5055131;28;20087;-76
2023/05/20 09:49:57;;;;;;;9.18;3.38;;;21.50;99.90;;;;;;5053339;28;20029;-75
2023/05/20 09:52:25;;;;;;;6.55;3.08;;;21.80;99.90;;;;;;5059568;28;20094;-75
2023/05/20 09:54:55;;;;;;;3.70;2.80;;;21.90;99.90;;;;;;5050963;28;20024;-76
2023/05/20 09:57:21;;;;;;;5.70;3.30;;;21.60;99.90;;;;;;5054689;28;20021;-76
2023/05/20 09:59:49;;;;;;;6.63;3.67;;;21.10;99.90;;;;;;5050741;28;20047;-73
2023/05/20 10:02:14;;;;;;;6.68;3.25;;;21.20;99.90;;;;;;5052032;28;20013;-73
2023/05/20 10:04:46;;;;;;;6.40;3.85;;;21.40;99.90;;;;;;5055164;28;20354;-77
2023/05/20 10:07:36;;;;;;;4.43;3.30;;;21.30;99.90;;;;;;5052163;28;20033;-76
2023/05/20 10:10:23;;;;;;;4.40;2.95;;;21.20;99.90;;;;;;5048598;28;20055;-76
2023/05/20 10:13:07;;;;;;;3.20;2.88;;;21.30;99.90;;;;;;5057889;28;20039;-74
2023/05/20 10:15:53;;;;;;;5.38;3.90;;;21.50;99.90;;;;;;5046797;28;20059;-74
2023/05/20 10:18:41;;;;;;;3.35;3.13;;;21.30;99.90;;;;;;5057014;28;20377;-75
2023/05/20 10:21:21;;;;;;;3.40;3.10;;;21.50;99.90;;;;;;4999763;28;20401;-75
2023/05/20 10:23:46;;;;;;;6.93;3.47;;;21.80;99.90;;;;;;5056433;28;20064;-75
2023/05/20 10:26:12;;;;;;;4.25;3.05;;;21.90;99.90;;;;;;5056090;28;20472;-75
2023/05/20 10:28:39;;;;;;;3.58;3.28;;;22.00;99.90;;;;;;5052470;28;20016;-73
2023/05/20 10:31:16;;;;;;;9.38;3.17;;;22.10;99.90;;;;;;5055396;28;20070;-75
2023/05/20 10:33:44;;;;;;;3.15;2.85;;;22.30;99.90;;;;;;5054941;28;20175;-75
2023/05/20 10:36:10;;;;;;;5.30;3.78;;;22.20;99.90;;;;;;5053973;28;20128;-74
2023/05/20 10:38:35;;;;;;;5.97;3.00;;;22.30;99.90;;;;;;5062818;28;20524;-73
2023/05/20 10:41:11;;;;;;;5.38;3.90;;;22.30;99.90;;;;;;5049428;28;20082;-75
2023/05/20 10:43:37;;;;;;;4.72;3.25;;;22.40;99.90;;;;;;5050260;28;20477;-77
2023/05/20 10:46:02;;;;;;;3.08;2.78;;;22.30;99.90;;;;;;5063295;28;20063;-75
2023/05/20 10:48:30;;;;;;;3.55;3.25;;;22.40;99.90;;;;;;5047438;28;20017;-74
2023/05/20 10:51:04;;;;;;;6.72;3.97;;;22.60;99.90;;;;;;5050029;28;20048;-76
2023/05/20 10:53:39;;;;;;;6.38;3.83;;;22.70;99.90;;;;;;5050093;28;20021;-75
2023/05/20 10:56:05;;;;;;;7.18;3.42;;;22.90;99.90;;;;;;5062140;28;20477;-75
2023/05/20 10:58:38;;;;;;;4.97;2.92;;;23.00;99.90;;;;;;5050264;28;20021;-75
2023/05/20 11:01:04;;;;;;;8.00;3.28;;;23.30;99.90;;;;;;5047908;28;20029;-75
2023/05/20 11:03:32;;;;;;;3.33;2.90;;;23.60;99.90;;;;;;5051014;28;20055;-75
2023/05/20 11:05:57;;;;;;;6.10;2.72;;;23.70;99.90;;;;;;5048823;28;20044;-74
2023/05/20 11:08:30;;;;;;;3.83;3.13;;;24.00;99.90;;;;;;5049887;28;20021;-75
2023/05/20 11:10:56;;;;;;;5.72;3.85;;;23.70;99.90;;;;;;5041525;28;20457;-73
2023/05/20 11:13:22;;;;;;;3.95;3.60;;;23.40;99.90;;;;;;5045741;28;20024;-74
2023/05/20 11:15:48;;;;;;;6.47;4.05;;;23.20;99.90;;;;;;5068787;28;20033;-78
2023/05/20 11:18:14;;;;;;;4.93;3.38;;;22.90;99.90;;;;;;5052190;28;20476;-73
2023/05/20 11:20:40;;;;;;;5.28;3.60;;;23.10;99.90;;;;;;5060841;28;20031;-75
2023/05/20 11:23:14;;;;;;;10.60;3.50;;;23.30;99.90;;;;;;5045120;28;20017;-76
2023/05/20 11:25:40;;;;;;;13.63;5.05;;;23.10;99.90;;;;;;5056164;28;20032;-76
2023/05/20 11:28:15;;;;;;;9.85;3.83;;;23.00;99.90;;;;;;5063422;28;20362;-76
2023/05/20 11:30:44;;;;;;;5.93;3.75;;;22.80;99.90;;;;;;5054931;28;20031;-75
2023/05/20 11:33:14;;;;;;;4.72;4.20;;;22.80;99.90;;;;;;5054410;28;20062;-75
2023/05/20 11:35:53;;;;;;;7.03;4.47;;;22.80;99.90;;;;;;5055533;28;20028;-74
2023/05/20 11:38:20;;;;;;;5.97;3.80;;;23.00;99.90;;;;;;5057773;28;20024;-74
2023/05/20 11:40:56;;;;;;;3.88;3.58;;;23.10;99.90;;;;;;5060401;28;20086;-75
2023/05/20 11:43:23;;;;;;;5.47;3.28;;;23.20;99.90;;;;;;5041975;28;20485;-75
2023/05/20 11:45:54;;;;;;;6.50;4.60;;;23.30;99.90;;;;;;5054248;28;20072;-78
2023/05/20 11:48:20;;;;;;;6.95;4.38;;;23.20;99.90;;;;;;5051554;28;20047;-75
2023/05/20 11:50:47;;;;;;;4.75;3.92;;;23.60;99.90;;;;;;5052562;28;20029;-74
2023/05/20 11:53:17;;;;;;;3.63;3.40;;;23.80;99.90;;;;;;5039960;28;20104;-76
2023/05/20 11:55:51;;;;;;;4.05;3.42;;;23.70;99.90;;;;;;5056841;28;20029;-74
2023/05/20 11:58:26;;;;;;;3.38;3.10;;;23.40;99.90;;;;;;5050641;28;20579;-74
2023/05/20 12:00:52;;;;;;;9.43;3.60;;;23.00;99.90;;;;;;5051294;28;20088;-77
2023/05/20 12:03:18;;;;;;;7.85;3.53;;;23.20;99.90;;;;;;5054881;28;20520;-75
2023/05/20 12:05:46;;;;;;;6.32;3.78;;;23.70;99.90;;;;;;5052346;28;20064;-77
2023/05/20 12:08:12;;;;;;;7.05;4.10;;;23.60;99.90;;;;;;5055804;28;20671;-76
2023/05/20 12:10:37;;;;;;;4.25;3.15;;;23.70;99.90;;;;;;5041675;28;20179;-75
2023/05/20 12:13:07;;;;;;;4.00;3.50;;;23.80;99.90;;;;;;5053669;28;20109;-75
2023/05/20 12:15:36;;;;;;;5.53;3.47;;;24.00;99.90;;;;;;5040136;28;20032;-74
2023/05/20 12:18:02;;;;;;;8.55;3.58;;;24.10;99.90;;;;;;5052525;28;20023;-78
2023/05/20 12:20:29;;;;;;;7.78;4.32;;;24.10;99.90;;;;;;5051266;28;20611;-74
2023/05/20 12:22:55;;;;;;;4.25;3.58;;;24.10;99.90;;;;;;5053130;28;20888;-74
2023/05/20 12:25:22;;;;;;;8.90;4.38;;;24.40;99.90;;;;;;5056883;28;20576;-80
2023/05/20 12:27:49;;;;;;;5.60;4.78;;;24.10;99.90;;;;;;5040758;28;20044;-76
2023/05/20 12:30:19;;;;;;;6.38;3.50;;;23.70;99.90;;;;;;5050556;28;20033;-75
2023/05/20 12:32:46;;;;;;;8.40;4.15;;;24.10;99.90;;;;;;5047564;28;20029;-76
2023/05/20 12:35:13;;;;;;;4.00;3.60;;;24.30;99.90;;;;;;5053854;28;20777;-75
2023/05/20 12:37:40;;;;;;;5.10;3.17;;;24.10;99.90;;;;;;5043737;28;20033;-76
2023/05/20 12:40:07;;;;;;;5.70;3.88;;;24.30;99.90;;;;;;5053876;28;20020;-75
2023/05/20 12:42:40;;;;;;;9.43;3.50;;;24.30;99.90;;;;;;5061097;28;20020;-75
2023/05/20 12:45:07;;;;;;;5.63;3.90;;;24.50;99.90;;;;;;5058187;28;20055;-77